Time;durP1;ratioP1;P1;durP2;ratioP2;P2;SDS_P1;SDS_P2;PMS_P1;PMS_P2;Temp;Humidity;BMP_temperature;BMP_pressure;BME280_temperature;BME280_humidity;BME280_pressure;Samples;Min_cycle;Max_cycle;Signal;HPM_P1;HPM_P2
2022/08/09 00:00:40;;;;;;;21.98;20.48;;;;;;;;;;5114853;28;20759;-76
2022/08/09 00:03:07;;;;;;;21.42;20.02;;;;;;;;;;5114902;28;20240;-76
2022/08/09 00:05:34;;;;;;;22.20;20.80;;;;;;;;;;5115125;28;20297;-76
2022/08/09 00:08:01;;;;;;;22.02;20.58;;;;;;;;;;5114823;28;20197;-77
2022/08/09 00:10:28;;;;;;;22.10;20.60;;;;;;;;;;5114695;28;20193;-77
2022/08/09 00:12:56;;;;;;;22.02;20.52;;;;;;;;;;5114707;28;20196;-76
2022/08/09 00:15:23;;;;;;;22.90;21.40;;;;;;;;;;5114639;28;20731;-76
2022/08/09 00:17:50;;;;;;;21.45;20.05;;;;;;;;;;5114555;28;20727;-76
2022/08/09 00:20:17;;;;;;;21.15;19.75;;;;;;;;;;5114305;28;20744;-75
2022/08/09 00:22:44;;;;;;;21.40;20.00;;;;;;;;;;5114771;28;20198;-76
2022/08/09 00:25:11;;;;;;;21.13;19.73;;;;;;;;;;5114465;28;20193;-75
2022/08/09 00:27:38;;;;;;;21.38;19.98;;;;;;;;;;5114430;28;20663;-75
2022/08/09 00:30:07;;;;;;;21.05;19.65;;;;;;;;;;5114629;28;20629;-75
2022/08/09 00:32:34;;;;;;;21.73;20.33;;;;;;;;;;5114321;28;20280;-75
2022/08/09 00:35:02;;;;;;;22.05;20.65;;;;;;;;;;5114162;28;20284;-75
2022/08/09 00:37:29;;;;;;;20.75;19.35;;;;;;;;;;5114232;28;20204;-75
2022/08/09 00:39:56;;;;;;;21.50;20.10;;;;;;;;;;5114070;28;20283;-75
2022/08/09 00:42:23;;;;;;;20.75;19.45;;;;;;;;;;5114031;28;20221;-75
2022/08/09 00:44:50;;;;;;;21.02;19.73;;;;;;;;;;5114040;28;20600;-75
2022/08/09 00:47:18;;;;;;;20.45;19.15;;;;;;;;;;5113946;28;20211;-74
2022/08/09 00:49:45;;;;;;;19.95;18.75;;;;;;;;;;5114006;28;20242;-75
2022/08/09 00:52:12;;;;;;;20.10;18.80;;;;;;;;;;5113832;28;20189;-75
2022/08/09 00:54:39;;;;;;;19.77;18.58;;;;;;;;;;5113889;28;20193;-74
2022/08/09 00:57:06;;;;;;;20.35;19.05;;;;;;;;;;5113813;28;20200;-74
2022/08/09 00:59:33;;;;;;;20.13;18.83;;;;;;;;;;5113756;28;20189;-75
2022/08/09 01:02:02;;;;;;;19.92;18.63;;;;;;;;;;5113697;28;20277;-75
2022/08/09 01:04:34;;;;;;;19.85;18.63;;;;;;;;;;5113650;28;20220;-75
2022/08/09 01:07:08;;;;;;;19.95;18.65;;;;;;;;;;5113680;28;20189;-74
2022/08/09 01:09:37;;;;;;;20.17;18.88;;;;;;;;;;5113602;28;20684;-75
2022/08/09 01:12:08;;;;;;;20.20;18.90;;;;;;;;;;5113562;28;20197;-74
2022/08/09 01:14:37;;;;;;;20.05;18.75;;;;;;;;;;5113488;28;20611;-74
2022/08/09 01:17:09;;;;;;;20.05;18.80;;;;;;;;;;5113444;28;20228;-74
2022/08/09 01:19:41;;;;;;;20.38;19.08;;;;;;;;;;5113119;28;20228;-74
2022/08/09 01:22:13;;;;;;;20.17;18.88;;;;;;;;;;5113317;28;20216;-74
2022/08/09 01:24:44;;;;;;;20.25;18.95;;;;;;;;;;5113264;28;20268;-75
2022/08/09 01:27:15;;;;;;;20.27;18.98;;;;;;;;;;5113595;28;20337;-74
2022/08/09 01:29:44;;;;;;;19.85;18.65;;;;;;;;;;5113199;28;20307;-75
2022/08/09 01:32:13;;;;;;;19.50;18.30;;;;;;;;;;5113166;28;20223;-75
2022/08/09 01:34:42;;;;;;;19.48;18.27;;;;;;;;;;5113082;28;20197;-74
2022/08/09 01:37:10;;;;;;;18.67;17.58;;;;;;;;;;5113012;28;20651;-74
2022/08/09 01:39:38;;;;;;;20.05;18.85;;;;;;;;;;5112999;28;20196;-74
2022/08/09 01:42:06;;;;;;;19.95;18.75;;;;;;;;;;5112874;28;20233;-74
2022/08/09 01:44:37;;;;;;;18.98;17.88;;;;;;;;;;5112924;28;20189;-74
2022/08/09 01:47:04;;;;;;;18.80;17.70;;;;;;;;;;5113178;28;20185;-74
2022/08/09 01:49:33;;;;;;;18.35;17.35;;;;;;;;;;5113147;28;20192;-75
2022/08/09 01:52:04;;;;;;;18.05;17.05;;;;;;;;;;5113118;28;20624;-75
2022/08/09 01:54:32;;;;;;;18.15;17.15;;;;;;;;;;5112796;28;20189;-74
2022/08/09 01:57:00;;;;;;;17.38;16.38;;;;;;;;;;5112742;28;20192;-75
2022/08/09 01:59:27;;;;;;;17.10;16.20;;;;;;;;;;5112689;28;20623;-75
2022/08/09 02:01:56;;;;;;;16.77;15.88;;;;;;;;;;5112877;28;20225;-74
2022/08/09 02:04:24;;;;;;;16.48;15.68;;;;;;;;;;5112569;28;20200;-75
2022/08/09 02:07:14;;;;;;;16.23;15.43;;;;;;;;;;5112571;28;20230;-75
2022/08/09 02:09:44;;;;;;;16.27;15.48;;;;;;;;;;5112586;28;20193;-74
2022/08/09 02:12:12;;;;;;;16.35;15.55;;;;;;;;;;5112578;28;20710;-74
2022/08/09 02:14:40;;;;;;;16.10;15.30;;;;;;;;;;5112436;28;20199;-75
2022/08/09 02:17:09;;;;;;;16.10;15.30;;;;;;;;;;5112341;28;20196;-74
2022/08/09 02:19:36;;;;;;;15.63;14.93;;;;;;;;;;5112183;28;20711;-75
2022/08/09 02:22:05;;;;;;;15.80;15.10;;;;;;;;;;5112345;28;20229;-75
2022/08/09 02:24:34;;;;;;;15.70;15.00;;;;;;;;;;5112679;28;20572;-75
2022/08/09 02:27:03;;;;;;;16.10;15.30;;;;;;;;;;5112333;28;20656;-75
2022/08/09 02:29:32;;;;;;;15.90;15.10;;;;;;;;;;5112624;28;20197;-75
2022/08/09 02:32:01;;;;;;;16.45;15.65;;;;;;;;;;5112258;28;20193;-75
2022/08/09 02:34:30;;;;;;;16.45;15.65;;;;;;;;;;5112292;28;20670;-75
2022/08/09 02:36:59;;;;;;;16.20;15.40;;;;;;;;;;5112241;28;20208;-75
2022/08/09 02:39:29;;;;;;;16.23;15.43;;;;;;;;;;5112235;28;20197;-75
2022/08/09 02:41:57;;;;;;;16.20;15.40;;;;;;;;;;5112147;28;20223;-75
2022/08/09 02:44:26;;;;;;;16.17;15.40;;;;;;;;;;5112185;28;20674;-74
2022/08/09 02:46:54;;;;;;;15.95;15.25;;;;;;;;;;5112186;28;20193;-74
2022/08/09 02:49:21;;;;;;;15.85;15.15;;;;;;;;;;5112435;28;20367;-75
2022/08/09 02:51:51;;;;;;;15.95;15.25;;;;;;;;;;5112167;28;20193;-74
2022/08/09 02:54:19;;;;;;;16.17;15.48;;;;;;;;;;5112455;28;20249;-75
2022/08/09 02:56:47;;;;;;;15.82;15.13;;;;;;;;;;5112452;28;20201;-75
2022/08/09 02:59:15;;;;;;;16.38;15.57;;;;;;;;;;5112402;28;20196;-75
2022/08/09 03:01:43;;;;;;;16.77;15.98;;;;;;;;;;5111968;28;20225;-74
2022/08/09 03:04:11;;;;;;;17.20;16.30;;;;;;;;;;5112062;28;20197;-75
2022/08/09 03:06:39;;;;;;;17.30;16.40;;;;;;;;;;5111993;28;20201;-75
2022/08/09 03:09:08;;;;;;;16.77;15.95;;;;;;;;;;5112016;28;20686;-75
2022/08/09 03:11:35;;;;;;;16.20;15.40;;;;;;;;;;5111922;28;20201;-74
2022/08/09 03:14:02;;;;;;;16.50;15.70;;;;;;;;;;5111972;28;20702;-74
2022/08/09 03:16:29;;;;;;;16.90;16.00;;;;;;;;;;5111880;28;20599;-74
2022/08/09 03:18:56;;;;;;;17.10;16.20;;;;;;;;;;5111939;28;20240;-74
2022/08/09 03:21:24;;;;;;;16.95;16.15;;;;;;;;;;5111774;28;20313;-75
2022/08/09 03:23:51;;;;;;;17.02;16.15;;;;;;;;;;5111869;28;20201;-74
2022/08/09 03:26:20;;;;;;;16.48;15.68;;;;;;;;;;5111811;28;20286;-74
2022/08/09 03:28:49;;;;;;;16.42;15.63;;;;;;;;;;5114082;28;20243;-75
2022/08/09 03:31:17;;;;;;;16.55;15.75;;;;;;;;;;5115555;28;20233;-75
2022/08/09 03:33:44;;;;;;;16.40;15.60;;;;;;;;;;5115444;28;20197;-75
2022/08/09 03:36:11;;;;;;;16.63;15.82;;;;;;;;;;5115435;28;20246;-75
2022/08/09 03:38:40;;;;;;;16.58;15.77;;;;;;;;;;5115387;28;20280;-76
2022/08/09 03:41:07;;;;;;;16.40;15.60;;;;;;;;;;5115212;28;20224;-75
2022/08/09 03:43:35;;;;;;;16.63;15.82;;;;;;;;;;5115267;28;20216;-75
2022/08/09 03:46:02;;;;;;;16.15;15.35;;;;;;;;;;5115495;28;20204;-75
2022/08/09 03:48:30;;;;;;;16.67;15.88;;;;;;;;;;5115163;28;20291;-75
2022/08/09 03:50:57;;;;;;;16.50;15.70;;;;;;;;;;5115420;28;20197;-75
2022/08/09 03:53:25;;;;;;;17.08;16.27;;;;;;;;;;5115047;28;20198;-74
2022/08/09 03:55:52;;;;;;;17.38;16.58;;;;;;;;;;5115353;28;20250;-74
2022/08/09 03:58:20;;;;;;;17.52;16.67;;;;;;;;;;5114961;28;20239;-75
2022/08/09 04:00:48;;;;;;;18.23;17.23;;;;;;;;;;5114972;28;20197;-74
2022/08/09 04:03:16;;;;;;;18.90;17.90;;;;;;;;;;5114830;28;20229;-74
2022/08/09 04:05:43;;;;;;;19.50;18.40;;;;;;;;;;5114873;28;20245;-74
2022/08/09 04:08:10;;;;;;;19.70;18.60;;;;;;;;;;5114833;28;20204;-74
2022/08/09 04:10:37;;;;;;;19.63;18.52;;;;;;;;;;5114715;28;20231;-74
2022/08/09 04:13:08;;;;;;;19.90;18.70;;;;;;;;;;5115082;28;20637;-74
2022/08/09 04:15:35;;;;;;;20.05;18.85;;;;;;;;;;5114682;28;20263;-74
2022/08/09 04:18:04;;;;;;;20.13;18.85;;;;;;;;;;5114768;28;20224;-75
2022/08/09 04:20:31;;;;;;;20.90;19.70;;;;;;;;;;5114585;28;20190;-74
2022/08/09 04:22:58;;;;;;;19.67;18.48;;;;;;;;;;5114456;28;20722;-74
2022/08/09 04:25:25;;;;;;;20.38;19.17;;;;;;;;;;5114462;28;20189;-74
2022/08/09 04:27:52;;;;;;;20.75;19.48;;;;;;;;;;5114390;28;20212;-75
2022/08/09 04:30:21;;;;;;;21.23;19.95;;;;;;;;;;5114416;28;20197;-75
2022/08/09 04:32:48;;;;;;;20.00;18.80;;;;;;;;;;5114594;28;20197;-74
2022/08/09 04:35:17;;;;;;;21.05;19.75;;;;;;;;;;5114326;28;20216;-75
2022/08/09 04:37:44;;;;;;;20.50;19.30;;;;;;;;;;5114233;28;20280;-74
2022/08/09 04:40:11;;;;;;;21.40;20.10;;;;;;;;;;5114167;28;20193;-74
2022/08/09 04:42:38;;;;;;;21.50;20.20;;;;;;;;;;5114038;28;20285;-74
2022/08/09 04:45:06;;;;;;;21.35;20.05;;;;;;;;;;5114079;28;20192;-74
2022/08/09 04:47:33;;;;;;;21.65;20.25;;;;;;;;;;5114067;28;20203;-74
2022/08/09 04:50:00;;;;;;;20.95;19.65;;;;;;;;;;5114004;28;20204;-75
2022/08/09 04:52:29;;;;;;;21.27;19.98;;;;;;;;;;5113956;28;20203;-74
2022/08/09 04:54:56;;;;;;;21.48;20.17;;;;;;;;;;5113911;28;20193;-74
2022/08/09 04:57:23;;;;;;;21.30;20.00;;;;;;;;;;5114122;28;20193;-75
2022/08/09 04:59:50;;;;;;;21.23;19.92;;;;;;;;;;5113797;28;20239;-74
2022/08/09 05:02:17;;;;;;;21.42;20.10;;;;;;;;;;5113627;28;20228;-74
2022/08/09 05:04:44;;;;;;;21.88;20.48;;;;;;;;;;5113675;28;20611;-74
2022/08/09 05:07:11;;;;;;;20.30;19.10;;;;;;;;;;5113667;28;20197;-74
2022/08/09 05:09:39;;;;;;;20.00;18.80;;;;;;;;;;5114414;28;20197;-74
2022/08/09 05:12:07;;;;;;;20.48;19.17;;;;;;;;;;5113596;28;20288;-74
2022/08/09 05:14:34;;;;;;;20.50;19.20;;;;;;;;;;5113470;28;20193;-74
2022/08/09 05:17:01;;;;;;;20.60;19.30;;;;;;;;;;5113791;28;20215;-74
2022/08/09 05:19:28;;;;;;;20.80;19.50;;;;;;;;;;5113175;28;20228;-75
2022/08/09 05:21:55;;;;;;;21.00;19.70;;;;;;;;;;5113556;28;20235;-75
2022/08/09 05:24:22;;;;;;;21.13;19.75;;;;;;;;;;5113659;28;20225;-74
2022/08/09 05:26:51;;;;;;;20.92;19.63;;;;;;;;;;5113207;28;20197;-75
2022/08/09 05:29:19;;;;;;;20.38;19.10;;;;;;;;;;5113224;28;20581;-74
2022/08/09 05:31:46;;;;;;;20.73;19.42;;;;;;;;;;5113114;28;20565;-75
2022/08/09 05:34:14;;;;;;;20.45;19.15;;;;;;;;;;5113171;28;20211;-74
2022/08/09 05:36:41;;;;;;;21.05;19.75;;;;;;;;;;5113119;28;20250;-74
2022/08/09 05:39:08;;;;;;;20.55;19.25;;;;;;;;;;5113342;28;20271;-74
2022/08/09 05:41:35;;;;;;;20.50;19.20;;;;;;;;;;5113006;28;20246;-74
2022/08/09 05:44:04;;;;;;;20.20;19.00;;;;;;;;;;5112838;28;20229;-75
2022/08/09 05:46:31;;;;;;;20.63;19.33;;;;;;;;;;5113244;28;20624;-74
2022/08/09 05:48:58;;;;;;;20.23;19.02;;;;;;;;;;5112819;28;20193;-74
2022/08/09 05:51:25;;;;;;;20.27;19.08;;;;;;;;;;5112175;28;20200;-74
2022/08/09 05:53:52;;;;;;;20.42;19.13;;;;;;;;;;5112804;28;20192;-74
2022/08/09 05:56:19;;;;;;;20.90;19.60;;;;;;;;;;5113081;28;20607;-74
2022/08/09 05:58:46;;;;;;;20.95;19.67;;;;;;;;;;5112749;28;20246;-74
2022/08/09 06:01:15;;;;;;;21.58;20.27;;;;;;;;;;5112644;28;20197;-74
2022/08/09 06:03:42;;;;;;;20.35;19.15;;;;;;;;;;5112898;28;20233;-74
2022/08/09 06:06:09;;;;;;;20.30;19.00;;;;;;;;;;5112612;28;20233;-73
2022/08/09 06:08:36;;;;;;;20.58;19.27;;;;;;;;;;5112628;28;20193;-74
2022/08/09 06:11:03;;;;;;;20.58;19.27;;;;;;;;;;5112892;28;20254;-74
2022/08/09 06:13:30;;;;;;;20.98;19.67;;;;;;;;;;5113328;28;20189;-74
2022/08/09 06:15:56;;;;;;;20.25;18.95;;;;;;;;;;5112482;28;20195;-74
2022/08/09 06:18:25;;;;;;;20.38;19.08;;;;;;;;;;5112578;28;20224;-74
2022/08/09 06:20:52;;;;;;;20.30;19.00;;;;;;;;;;5112483;28;20278;-74
2022/08/09 06:23:20;;;;;;;20.25;18.95;;;;;;;;;;5112407;28;20278;-74
2022/08/09 06:25:47;;;;;;;20.42;19.13;;;;;;;;;;5112339;28;20282;-74
2022/08/09 06:28:14;;;;;;;20.38;19.08;;;;;;;;;;5112399;28;20192;-74
2022/08/09 06:30:42;;;;;;;21.60;20.27;;;;;;;;;;5112266;28;20193;-74
2022/08/09 06:33:09;;;;;;;21.27;19.98;;;;;;;;;;5112332;28;20284;-74
2022/08/09 06:35:37;;;;;;;20.98;19.58;;;;;;;;;;5112271;28;20728;-74
2022/08/09 06:38:05;;;;;;;20.27;18.98;;;;;;;;;;5112587;28;20224;-74
2022/08/09 06:40:32;;;;;;;20.00;18.77;;;;;;;;;;5112263;28;20224;-75
2022/08/09 06:42:59;;;;;;;19.80;18.50;;;;;;;;;;5112110;28;20694;-73
2022/08/09 06:45:27;;;;;;;19.80;18.50;;;;;;;;;;5112236;28;20197;-74
2022/08/09 06:47:54;;;;;;;20.05;18.73;;;;;;;;;;5112197;28;20193;-74
2022/08/09 06:50:21;;;;;;;19.90;18.60;;;;;;;;;;5112183;28;20197;-75
2022/08/09 06:52:49;;;;;;;20.20;18.90;;;;;;;;;;5112181;28;20654;-72
2022/08/09 06:55:18;;;;;;;19.88;18.58;;;;;;;;;;5112062;28;20189;-74
2022/08/09 06:57:45;;;;;;;20.20;18.90;;;;;;;;;;5112115;28;20229;-75
2022/08/09 07:00:12;;;;;;;19.90;18.60;;;;;;;;;;5112015;28;20189;-75
2022/08/09 07:02:39;;;;;;;19.38;18.08;;;;;;;;;;5113455;28;20225;-75
2022/08/09 07:05:07;;;;;;;19.08;17.77;;;;;;;;;;5116084;28;20193;-74
2022/08/09 07:07:34;;;;;;;19.38;18.08;;;;;;;;;;5115993;28;20203;-75
2022/08/09 07:10:02;;;;;;;20.30;19.00;;;;;;;;;;5115981;28;20204;-75
2022/08/09 07:12:29;;;;;;;19.70;18.40;;;;;;;;;;5116307;28;20220;-74
2022/08/09 07:14:56;;;;;;;19.42;18.13;;;;;;;;;;5115919;28;20189;-74
2022/08/09 07:17:23;;;;;;;19.83;18.52;;;;;;;;;;5116159;28;20201;-75
2022/08/09 07:19:50;;;;;;;19.55;18.25;;;;;;;;;;5115764;28;20225;-75
2022/08/09 07:22:17;;;;;;;19.70;18.40;;;;;;;;;;5115689;28;20203;-74
2022/08/09 07:24:44;;;;;;;20.30;18.90;;;;;;;;;;5115684;28;20200;-75
2022/08/09 07:27:13;;;;;;;19.50;18.20;;;;;;;;;;5115628;28;20700;-75
2022/08/09 07:29:40;;;;;;;19.88;18.52;;;;;;;;;;5115523;28;20190;-74
2022/08/09 07:32:07;;;;;;;19.95;18.63;;;;;;;;;;5115582;28;20228;-74
2022/08/09 07:34:34;;;;;;;20.10;18.77;;;;;;;;;;5115473;28;20226;-77
2022/08/09 07:37:01;;;;;;;20.38;18.98;;;;;;;;;;5115526;28;20200;-82
2022/08/09 07:39:28;;;;;;;20.83;19.42;;;;;;;;;;5115683;28;20702;-77
2022/08/09 07:41:55;;;;;;;20.77;19.48;;;;;;;;;;5115342;28;20726;-75
2022/08/09 07:44:24;;;;;;;20.80;19.40;;;;;;;;;;5115298;28;20231;-75
2022/08/09 07:46:51;;;;;;;20.48;19.13;;;;;;;;;;5115865;28;20272;-76
2022/08/09 07:49:18;;;;;;;21.05;19.73;;;;;;;;;;5115192;28;20540;-75
2022/08/09 07:51:45;;;;;;;20.65;19.35;;;;;;;;;;5115221;28;20193;-76
2022/08/09 07:54:12;;;;;;;20.52;19.23;;;;;;;;;;5115366;28;20201;-75
2022/08/09 07:56:39;;;;;;;20.33;19.02;;;;;;;;;;5115818;28;20204;-74
2022/08/09 07:59:06;;;;;;;21.00;19.65;;;;;;;;;;5115011;28;20204;-75
2022/08/09 08:01:35;;;;;;;21.23;19.83;;;;;;;;;;5114958;28;20679;-74
2022/08/09 08:04:02;;;;;;;21.20;19.90;;;;;;;;;;5115381;28;20228;-78
2022/08/09 08:06:30;;;;;;;21.30;19.90;;;;;;;;;;5115113;28;20283;-75
2022/08/09 08:08:57;;;;;;;21.52;20.13;;;;;;;;;;5115275;28;20196;-74
2022/08/09 08:11:24;;;;;;;21.15;19.75;;;;;;;;;;5114821;28;20201;-76
2022/08/09 08:13:51;;;;;;;20.73;19.42;;;;;;;;;;5114364;28;20272;-77
2022/08/09 08:16:18;;;;;;;20.90;19.60;;;;;;;;;;5114751;28;20193;-75
2022/08/09 08:18:46;;;;;;;21.15;19.85;;;;;;;;;;5114402;28;20229;-73
2022/08/09 08:21:13;;;;;;;21.30;19.90;;;;;;;;;;5114664;28;20193;-76
2022/08/09 08:23:40;;;;;;;21.48;20.08;;;;;;;;;;5114576;28;20221;-78
2022/08/09 08:26:07;;;;;;;21.33;19.92;;;;;;;;;;5114577;28;20250;-77
2022/08/09 08:28:34;;;;;;;21.73;20.33;;;;;;;;;;5114855;28;20193;-80
2022/08/09 08:31:01;;;;;;;21.98;20.58;;;;;;;;;;5114560;28;20253;-77
2022/08/09 08:33:28;;;;;;;22.10;20.70;;;;;;;;;;5114394;28;20275;-77
2022/08/09 08:35:57;;;;;;;22.52;21.13;;;;;;;;;;5114674;28;20579;-78
2022/08/09 08:38:24;;;;;;;21.98;20.58;;;;;;;;;;5114294;28;20337;-74
2022/08/09 08:40:53;;;;;;;22.40;21.00;;;;;;;;;;5114831;28;20229;-76
2022/08/09 08:43:20;;;;;;;21.48;20.08;;;;;;;;;;5114976;28;20232;-76
2022/08/09 08:45:49;;;;;;;21.85;20.35;;;;;;;;;;5114324;28;20568;-75
2022/08/09 08:48:16;;;;;;;23.83;22.42;;;;;;;;;;5114170;28;20229;-77
2022/08/09 08:50:43;;;;;;;22.65;21.15;;;;;;;;;;5114126;28;20193;-75
2022/08/09 08:53:13;;;;;;;22.75;21.25;;;;;;;;;;5113965;28;20254;-74
2022/08/09 08:55:40;;;;;;;22.15;20.75;;;;;;;;;;5114008;28;20204;-76
2022/08/09 08:58:07;;;;;;;22.00;20.60;;;;;;;;;;5114499;28;20272;-76
2022/08/09 09:00:41;;;;;;;21.98;20.58;;;;;;;;;;5114174;28;20197;-78
2022/08/09 09:03:10;;;;;;;21.23;19.73;;;;;;;;;;5113866;28;20217;-77
2022/08/09 09:05:38;;;;;;;20.75;19.35;;;;;;;;;;5113736;28;20189;-73
2022/08/09 09:08:06;;;;;;;20.80;19.40;;;;;;;;;;5114634;28;20280;-77
2022/08/09 09:10:36;;;;;;;21.35;19.95;;;;;;;;;;5113640;28;20237;-78
2022/08/09 09:13:03;;;;;;;21.85;20.45;;;;;;;;;;5113923;28;20224;-78
2022/08/09 09:15:30;;;;;;;21.23;19.83;;;;;;;;;;5113535;28;20279;-76
2022/08/09 09:17:57;;;;;;;21.42;20.02;;;;;;;;;;5113515;28;20276;-77
2022/08/09 09:20:24;;;;;;;20.23;18.88;;;;;;;;;;5113488;28;20251;-78
2022/08/09 09:22:52;;;;;;;20.95;19.55;;;;;;;;;;5113383;28;20200;-77
2022/08/09 09:25:31;;;;;;;21.40;20.00;;;;;;;;;;5113045;28;20201;-73
2022/08/09 09:28:00;;;;;;;21.00;19.60;;;;;;;;;;5113099;28;20225;-75
2022/08/09 09:30:27;;;;;;;21.00;19.60;;;;;;;;;;5113381;28;20192;-76
2022/08/09 09:33:02;;;;;;;21.17;19.77;;;;;;;;;;5113193;28;20663;-75
2022/08/09 09:35:29;;;;;;;21.08;19.67;;;;;;;;;;5113569;28;20305;-78
2022/08/09 09:37:56;;;;;;;20.95;19.55;;;;;;;;;;5113144;28;20678;-75
2022/08/09 09:40:40;;;;;;;21.35;19.95;;;;;;;;;;5113218;28;20196;-78
2022/08/09 09:43:09;;;;;;;21.20;19.80;;;;;;;;;;5113068;28;20670;-74
2022/08/09 09:45:48;;;;;;;20.95;19.55;;;;;;;;;;5113288;28;20197;-77
2022/08/09 09:48:15;;;;;;;20.83;19.48;;;;;;;;;;5113317;28;20224;-76
2022/08/09 09:50:42;;;;;;;21.30;19.90;;;;;;;;;;5113832;28;20197;-77
2022/08/09 09:53:14;;;;;;;21.17;19.77;;;;;;;;;;5113298;28;20193;-77
2022/08/09 09:55:50;;;;;;;21.58;20.17;;;;;;;;;;5113034;28;20207;-76
2022/08/09 09:58:19;;;;;;;21.63;20.23;;;;;;;;;;5112903;28;20628;-77
2022/08/09 10:00:46;;;;;;;21.17;19.77;;;;;;;;;;5112929;28;20549;-78
2022/08/09 10:03:13;;;;;;;20.63;19.27;;;;;;;;;;5112928;28;20197;-75
2022/08/09 10:05:55;;;;;;;21.23;19.83;;;;;;;;;;5112719;28;20189;-75
2022/08/09 10:08:23;;;;;;;20.95;19.55;;;;;;;;;;5112647;28;20268;-75
2022/08/09 10:10:50;;;;;;;21.08;19.67;;;;;;;;;;5113440;28;20204;-76
2022/08/09 10:13:18;;;;;;;21.30;19.90;;;;;;;;;;5112961;28;20230;-75
2022/08/09 10:15:49;;;;;;;21.25;19.85;;;;;;;;;;5112659;28;20201;-75
2022/08/09 10:18:16;;;;;;;21.10;19.80;;;;;;;;;;5112708;28;20242;-76
2022/08/09 10:20:44;;;;;;;20.98;19.67;;;;;;;;;;5112948;28;20225;-78
2022/08/09 10:23:16;;;;;;;20.88;19.58;;;;;;;;;;5112511;28;20677;-76
2022/08/09 10:25:44;;;;;;;21.10;19.70;;;;;;;;;;5112626;28;20789;-80
2022/08/09 10:28:11;;;;;;;21.38;19.98;;;;;;;;;;5112557;28;20189;-76
2022/08/09 10:30:40;;;;;;;21.02;19.73;;;;;;;;;;5112308;28;20199;-76
2022/08/09 10:33:07;;;;;;;20.77;19.48;;;;;;;;;;5113023;28;20200;-76
2022/08/09 10:35:34;;;;;;;21.45;20.05;;;;;;;;;;5113227;28;20204;-75
2022/08/09 10:38:01;;;;;;;21.65;20.25;;;;;;;;;;5114706;28;20193;-76
2022/08/09 10:40:29;;;;;;;21.42;20.02;;;;;;;;;;5116730;28;20193;-76
2022/08/09 10:42:56;;;;;;;21.08;19.67;;;;;;;;;;5116504;28;20200;-76
2022/08/09 10:45:24;;;;;;;21.38;19.98;;;;;;;;;;5116605;28;20277;-77
2022/08/09 10:47:59;;;;;;;21.40;20.00;;;;;;;;;;5116437;28;20193;-74
2022/08/09 10:51:05;;;;;;;21.35;20.00;;;;;;;;;;5116491;28;20191;-78
2022/08/09 10:53:23;;;;;;;21.20;19.90;;;;;;;;;;5116119;28;20284;-78
2022/08/09 10:55:50;;;;;;;21.52;20.13;;;;;;;;;;5116365;28;20185;-76
2022/08/09 10:58:29;;;;;;;21.25;19.85;;;;;;;;;;5116786;28;20220;-75
2022/08/09 11:00:56;;;;;;;21.08;19.67;;;;;;;;;;5116684;28;20189;-76
2022/08/09 11:03:26;;;;;;;21.15;19.75;;;;;;;;;;5116469;28;20201;-78
2022/08/09 11:06:11;;;;;;;21.35;19.95;;;;;;;;;;5116509;28;20192;-78
2022/08/09 11:08:42;;;;;;;21.63;20.23;;;;;;;;;;5116178;28;20231;-76
2022/08/09 11:11:09;;;;;;;21.52;20.13;;;;;;;;;;5115976;28;20193;-78
2022/08/09 11:13:36;;;;;;;21.17;19.77;;;;;;;;;;5116117;28;20698;-75
2022/08/09 11:16:21;;;;;;;21.02;19.63;;;;;;;;;;5115967;28;20638;-75
2022/08/09 11:18:51;;;;;;;21.08;19.67;;;;;;;;;;5115595;28;20224;-75
2022/08/09 11:21:32;;;;;;;20.88;19.48;;;;;;;;;;5115957;28;20673;-76
2022/08/09 11:23:59;;;;;;;21.70;20.30;;;;;;;;;;5115118;28;20224;-77
2022/08/09 11:26:44;;;;;;;20.98;19.58;;;;;;;;;;5115926;28;20587;-76
2022/08/09 11:29:26;;;;;;;21.17;19.77;;;;;;;;;;5116314;28;20189;-76
2022/08/09 11:31:53;;;;;;;21.08;19.67;;;;;;;;;;5114917;28;20651;-77
2022/08/09 11:34:29;;;;;;;21.08;19.67;;;;;;;;;;5115700;28;20197;-76
2022/08/09 11:36:58;;;;;;;21.50;20.10;;;;;;;;;;5115575;28;20185;-76
2022/08/09 11:39:25;;;;;;;21.35;19.95;;;;;;;;;;5115568;28;20283;-80
2022/08/09 11:41:52;;;;;;;21.23;19.83;;;;;;;;;;5115421;28;20189;-77
2022/08/09 11:44:19;;;;;;;21.10;19.75;;;;;;;;;;5115320;28;20649;-77
2022/08/09 11:46:53;;;;;;;21.25;19.85;;;;;;;;;;5115456;28;20284;-78
2022/08/09 11:49:40;;;;;;;21.00;19.60;;;;;;;;;;5114209;28;20193;-76
2022/08/09 11:52:08;;;;;;;21.10;19.70;;;;;;;;;;5115098;28;20626;-78
2022/08/09 11:54:35;;;;;;;21.20;19.80;;;;;;;;;;5115232;28;20668;-76
2022/08/09 11:57:21;;;;;;;21.40;20.00;;;;;;;;;;5115022;28;20199;-78
2022/08/09 11:59:48;;;;;;;21.02;19.73;;;;;;;;;;5115140;28;20279;-77
2022/08/09 12:02:15;;;;;;;20.75;19.35;;;;;;;;;;5115199;28;20636;-77
2022/08/09 12:04:43;;;;;;;21.13;19.73;;;;;;;;;;5114952;28;20242;-77
2022/08/09 12:07:11;;;;;;;20.50;19.10;;;;;;;;;;5114947;28;20193;-77
2022/08/09 12:09:41;;;;;;;21.17;19.77;;;;;;;;;;5115015;28;20276;-75
2022/08/09 12:12:14;;;;;;;20.70;19.40;;;;;;;;;;5114845;28;20548;-75
2022/08/09 12:14:41;;;;;;;21.02;19.63;;;;;;;;;;5114981;28;20662;-77
2022/08/09 12:17:13;;;;;;;21.00;19.60;;;;;;;;;;5114999;28;20193;-79
2022/08/09 12:19:40;;;;;;;20.65;19.35;;;;;;;;;;5114642;28;20232;-76
2022/08/09 12:22:06;;;;;;;20.55;19.25;;;;;;;;;;5114739;28;20351;-76
2022/08/09 12:24:35;;;;;;;20.75;19.45;;;;;;;;;;5115631;28;20225;-73
2022/08/09 12:27:03;;;;;;;20.75;19.45;;;;;;;;;;5114611;28;20232;-80
2022/08/09 12:29:31;;;;;;;20.98;19.58;;;;;;;;;;5114462;28;20292;-72
2022/08/09 12:32:02;;;;;;;20.58;19.27;;;;;;;;;;5114734;28;20572;-76
2022/08/09 12:34:32;;;;;;;20.98;19.67;;;;;;;;;;5114397;28;20204;-81
2022/08/09 12:37:01;;;;;;;20.55;19.25;;;;;;;;;;5114798;28;20193;-72
2022/08/09 12:39:28;;;;;;;20.80;19.50;;;;;;;;;;5114708;28;20586;-75
2022/08/09 12:42:05;;;;;;;20.63;19.33;;;;;;;;;;5114299;28;20198;-75
2022/08/09 12:44:32;;;;;;;20.73;19.42;;;;;;;;;;5114488;28;20303;-77
2022/08/09 12:46:59;;;;;;;20.65;19.25;;;;;;;;;;5114591;28;20193;-77
2022/08/09 12:49:26;;;;;;;20.98;19.67;;;;;;;;;;5114280;28;20189;-74
2022/08/09 12:51:53;;;;;;;20.92;19.52;;;;;;;;;;5114192;28;20204;-78
2022/08/09 12:54:20;;;;;;;21.25;19.85;;;;;;;;;;5114237;28;20243;-76
2022/08/09 12:56:48;;;;;;;20.40;19.10;;;;;;;;;;5114140;28;20275;-77
2022/08/09 12:59:18;;;;;;;20.48;19.17;;;;;;;;;;5113944;28;20698;-79
2022/08/09 13:01:46;;;;;;;20.77;19.48;;;;;;;;;;5113788;28;20200;-76
2022/08/09 13:04:16;;;;;;;20.58;19.27;;;;;;;;;;5113867;28;20618;-76
2022/08/09 13:06:44;;;;;;;20.92;19.63;;;;;;;;;;5114383;28;20193;-75
2022/08/09 13:09:12;;;;;;;20.92;19.52;;;;;;;;;;5113806;28;20280;-76
2022/08/09 13:11:39;;;;;;;20.88;19.58;;;;;;;;;;5114180;28;20199;-77
2022/08/09 13:14:10;;;;;;;21.10;19.73;;;;;;;;;;5113916;28;20284;-75
2022/08/09 13:16:40;;;;;;;20.48;19.17;;;;;;;;;;5113650;28;20562;-80
2022/08/09 13:19:07;;;;;;;20.77;19.48;;;;;;;;;;5113520;28;20259;-80
2022/08/09 13:21:34;;;;;;;20.73;19.33;;;;;;;;;;5113575;28;20670;-75
2022/08/09 13:24:02;;;;;;;20.85;19.55;;;;;;;;;;5113616;28;20235;-79
2022/08/09 13:26:33;;;;;;;20.80;19.40;;;;;;;;;;5113342;28;20698;-74
2022/08/09 13:29:07;;;;;;;21.00;19.60;;;;;;;;;;5113676;28;20197;-75
2022/08/09 13:31:34;;;;;;;20.65;19.33;;;;;;;;;;5114140;28;20193;-85
2022/08/09 13:34:02;;;;;;;20.63;19.23;;;;;;;;;;5113287;28;20283;-78
2022/08/09 13:36:29;;;;;;;20.70;19.40;;;;;;;;;;5113329;28;20193;-80
2022/08/09 13:38:56;;;;;;;20.70;19.40;;;;;;;;;;5113172;28;20193;-80
2022/08/09 13:41:24;;;;;;;20.73;19.40;;;;;;;;;;5113160;28;20193;-75
2022/08/09 13:43:51;;;;;;;20.40;19.00;;;;;;;;;;5113417;28;20208;-77
2022/08/09 13:46:18;;;;;;;20.95;19.55;;;;;;;;;;5113036;28;20311;-79
2022/08/09 13:48:45;;;;;;;20.83;19.42;;;;;;;;;;5113023;28;20221;-81
2022/08/09 13:51:13;;;;;;;20.67;19.35;;;;;;;;;;5113144;28;20578;-79
2022/08/09 13:53:40;;;;;;;20.98;19.58;;;;;;;;;;5112978;28;20280;-75
2022/08/09 13:56:08;;;;;;;21.15;19.75;;;;;;;;;;5112827;28;20193;-78
2022/08/09 13:58:35;;;;;;;20.85;19.45;;;;;;;;;;5113144;28;20197;-76
2022/08/09 14:01:02;;;;;;;21.02;19.63;;;;;;;;;;5112872;28;20193;-76
2022/08/09 14:03:29;;;;;;;20.95;19.55;;;;;;;;;;5113002;28;20233;-77
2022/08/09 14:05:57;;;;;;;20.40;19.00;;;;;;;;;;5112718;28;20225;-76
2022/08/09 14:08:26;;;;;;;20.65;19.25;;;;;;;;;;5113072;28;20244;-81
2022/08/09 14:10:53;;;;;;;21.25;19.85;;;;;;;;;;5112649;28;20219;-73
2022/08/09 14:13:21;;;;;;;20.98;19.48;;;;;;;;;;5112038;28;20220;-76
2022/08/09 14:15:48;;;;;;;21.13;19.73;;;;;;;;;;5112608;28;20193;-75
2022/08/09 14:18:15;;;;;;;21.05;19.65;;;;;;;;;;5112432;28;20258;-75
2022/08/09 14:20:42;;;;;;;20.50;19.10;;;;;;;;;;5112916;28;20203;-74
2022/08/09 14:23:09;;;;;;;20.88;19.48;;;;;;;;;;5112493;28;20197;-75